Time;durP1;ratioP1;P1;durP2;ratioP2;P2;SDS_P1;SDS_P2;PMS_P1;PMS_P2;Temp;Humidity;BMP_temperature;BMP_pressure;BME280_temperature;BME280_humidity;BME280_pressure;Samples;Min_cycle;Max_cycle;Signal;HPM_P1;HPM_P2
2022/09/14 00:01:29;;;;;;;10.05;3.85;;;;;;;15.76;97.41;100870.09;6127639;23;20010;-81
2022/09/14 00:04:06;;;;;;;11.18;3.58;;;;;;;15.57;97.70;100841.31;6127525;23;20080;-80
2022/09/14 00:06:32;;;;;;;8.77;3.42;;;;;;;15.68;97.94;100863.88;6127935;23;20057;-81
2022/09/14 00:09:02;;;;;;;11.02;3.42;;;;;;;15.74;98.24;100858.16;6127473;23;20033;-80
2022/09/14 00:11:30;;;;;;;13.02;4.13;;;;;;;15.71;98.70;100856.59;6100571;23;20455;-80
2022/09/14 00:13:57;;;;;;;11.25;3.40;;;;;;;15.68;99.30;100853.44;6128191;23;20010;-77
2022/09/14 00:16:30;;;;;;;11.77;3.95;;;;;;;15.56;98.66;100837.06;6127516;23;20025;-81
2022/09/14 00:19:04;;;;;;;9.25;3.55;;;;;;;15.58;98.92;100847.34;6127770;23;20016;-80
2022/09/14 00:21:30;;;;;;;9.57;3.97;;;;;;;15.53;100.00;100833.88;6127758;23;20006;-76
2022/09/14 00:23:55;;;;;;;7.47;3.40;;;;;;;15.63;100.00;100843.44;6127262;23;20010;-80
2022/09/14 00:26:22;;;;;;;10.85;3.97;;;;;;;15.57;99.38;100846.50;6100897;23;20085;-81
2022/09/14 00:28:52;;;;;;;9.85;3.88;;;;;;;15.56;100.00;100847.47;6127654;23;20376;-79
2022/09/14 00:31:19;;;;;;;10.35;4.13;;;;;;;15.50;98.17;100834.97;6127595;23;20332;-80
2022/09/14 00:33:46;;;;;;;7.15;3.63;;;;;;;15.38;99.12;100820.38;6127748;23;20068;-81
2022/09/14 00:36:15;;;;;;;9.05;3.80;;;;;;;15.40;99.46;100827.09;6127437;23;20033;-81
2022/09/14 00:38:41;;;;;;;10.60;4.13;;;;;;;15.48;99.02;100840.28;6126819;23;20056;-80
2022/09/14 00:41:12;;;;;;;9.85;3.95;;;;;;;15.47;98.03;100832.63;6100601;23;20010;-81
2022/09/14 00:44:11;;;;;;;7.95;3.80;;;;;;;15.38;98.10;100812.56;6127392;23;20006;-79
2022/09/14 00:46:40;;;;;;;8.25;3.70;;;;;;;15.47;97.54;100822.22;6127029;23;20013;-81
2022/09/14 00:49:11;;;;;;;11.68;3.92;;;;;;;15.45;97.32;100821.53;6127316;23;20002;-81
2022/09/14 00:51:44;;;;;;;10.70;3.40;;;;;;;15.29;96.88;100800.31;6127728;23;20025;-80
2022/09/14 00:54:10;;;;;;;11.80;3.97;;;;;;;15.19;96.79;100782.88;6127373;23;20018;-80
2022/09/14 00:56:36;;;;;;;10.55;3.58;;;;;;;15.35;96.71;100799.81;6127183;23;20002;-80
2022/09/14 00:59:14;;;;;;;9.18;3.67;;;;;;;15.14;97.64;100769.44;6101136;23;20094;-81
2022/09/14 01:01:40;;;;;;;7.75;3.55;;;;;;;15.34;97.39;100804.19;6127233;23;20010;-80
2022/09/14 01:04:06;;;;;;;7.55;3.50;;;;;;;15.26;96.82;100780.59;6127158;23;20064;-82
2022/09/14 01:06:38;;;;;;;10.07;3.38;;;;;;;15.32;97.64;100787.88;6127217;23;20006;-81
2022/09/14 01:09:19;;;;;;;11.05;3.80;;;;;;;15.31;96.88;100790.59;6126921;23;20436;-83
2022/09/14 01:12:02;;;;;;;11.15;3.33;;;;;;;15.25;96.84;100791.97;6101074;23;20061;-79
2022/09/14 01:15:04;;;;;;;8.82;3.35;;;;;;;15.26;96.48;100783.19;6127006;23;20010;-80
2022/09/14 01:17:51;;;;;;;10.40;3.63;;;;;;;15.24;98.70;100779.91;5981329;24;20012;-81
2022/09/14 01:20:32;;;;;;;7.15;3.28;;;;;;;15.14;96.44;100779.84;5981379;24;20012;-81
2022/09/14 01:23:21;;;;;;;7.68;3.38;;;;;;;15.11;96.89;100776.66;5981327;24;20091;-79
2022/09/14 01:25:58;;;;;;;10.50;3.08;;;;;;;14.95;96.47;100779.72;5957780;24;20020;-77
2022/09/14 01:28:32;;;;;;;8.68;3.13;;;;;;;14.93;97.98;100769.41;5957398;24;20012;-77
2022/09/14 01:31:02;;;;;;;8.70;3.15;;;;;;;14.77;97.91;100744.81;5981304;24;20023;-79
2022/09/14 01:33:37;;;;;;;9.05;3.50;;;;;;;14.86;97.87;100764.84;5958436;24;20024;-79
2022/09/14 01:36:06;;;;;;;7.57;3.00;;;;;;;14.73;97.74;100746.00;5981147;24;20019;-79
2022/09/14 01:38:39;;;;;;;10.15;3.22;;;;;;;14.82;96.99;100771.25;5981295;24;20055;-79
2022/09/14 01:41:09;;;;;;;7.45;3.00;;;;;;;14.82;96.45;100773.84;5980796;24;20057;-79
2022/09/14 01:43:50;;;;;;;14.15;4.25;;;;;;;14.89;97.27;100780.19;5981007;24;20427;-80
2022/09/14 01:46:20;;;;;;;10.27;3.30;;;;;;;14.84;97.32;100771.94;5981259;24;20009;-80
2022/09/14 01:49:12;;;;;;;10.32;3.63;;;;;;;14.89;99.09;100775.81;5981057;24;20072;-79
2022/09/14 01:51:45;;;;;;;;;;;;;;;14.99;97.01;100778.50;5981650;24;20114;-79
2022/09/14 01:54:23;;;;;;;10.90;3.35;;;;;;;14.71;98.33;100732.31;6057852;23;19909;-78
2022/09/14 01:57:12;;;;;;;11.23;3.80;;;;;;;14.76;98.23;100746.59;6126569;23;20002;-79
2022/09/14 01:59:43;;;;;;;11.05;3.30;;;;;;;14.72;98.53;100736.53;6106154;23;20421;-79
2022/09/14 02:02:24;;;;;;;13.32;3.88;;;;;;;14.84;99.04;100753.72;6126751;23;20013;-80
2022/09/14 02:05:01;;;;;;;9.55;3.95;;;;;;;14.82;98.94;100748.66;6125647;23;20006;-80
2022/09/14 02:07:26;;;;;;;14.65;4.53;;;;;;;14.62;98.24;100726.91;6126968;23;20002;-80
2022/09/14 02:09:54;;;;;;;9.98;3.85;;;;;;;14.66;100.00;100729.28;6126696;23;20020;-80
2022/09/14 02:12:21;;;;;;;10.13;3.40;;;;;;;14.78;98.30;100754.25;6126808;23;20329;-80
2022/09/14 02:14:48;;;;;;;14.00;3.65;;;;;;;14.74;98.61;100758.84;6126632;23;20002;-79
2022/09/14 02:17:13;;;;;;;10.15;3.50;;;;;;;14.72;97.69;100767.75;6100460;23;20010;-79
2022/09/14 02:19:45;;;;;;;9.23;3.90;;;;;;;14.67;99.55;100756.91;6100931;23;20064;-80
2022/09/14 02:22:11;;;;;;;10.38;3.63;;;;;;;14.62;100.00;100747.69;6126381;23;20006;-80
2022/09/14 02:24:37;;;;;;;9.13;3.72;;;;;;;14.67;100.00;100765.53;6126219;23;20017;-80
2022/09/14 02:27:04;;;;;;;9.27;3.97;;;;;;;14.60;100.00;100747.00;6126401;23;20006;-80
2022/09/14 02:29:30;;;;;;;10.80;3.85;;;;;;;14.68;100.00;100755.94;6126462;23;20013;-81
2022/09/14 02:32:17;;;;;;;11.30;4.13;;;;;;;14.69;100.00;100757.59;6126408;23;20391;-82
2022/09/14 02:35:00;;;;;;;10.75;4.20;;;;;;;14.67;100.00;100770.72;6126695;23;20381;-81
2022/09/14 02:37:41;;;;;;;15.02;4.75;;;;;;;14.65;100.00;100762.22;6126395;23;20002;-80
2022/09/14 02:40:28;;;;;;;14.93;4.22;;;;;;;14.64;100.00;100761.38;6126423;23;20013;-80
2022/09/14 02:43:15;;;;;;;13.30;4.50;;;;;;;14.67;100.00;100757.72;6126283;23;20448;-79
2022/09/14 02:46:02;;;;;;;10.43;4.22;;;;;;;14.68;100.00;100761.16;6126328;23;20009;-79
2022/09/14 02:48:40;;;;;;;11.10;4.55;;;;;;;14.66;100.00;100752.66;6126392;23;20325;-80
2022/09/14 02:51:22;;;;;;;9.25;4.25;;;;;;;14.56;100.00;100748.22;6126277;23;20014;-79
2022/09/14 02:54:13;;;;;;;11.98;4.50;;;;;;;14.41;100.00;100727.78;6126481;23;20005;-79
2022/09/14 02:56:39;;;;;;;9.73;4.25;;;;;;;14.40;100.00;100720.94;6126645;23;20084;-79
2022/09/14 02:59:04;;;;;;;9.98;4.18;;;;;;;14.56;100.00;100753.41;6126100;23;20006;-79
2022/09/14 03:01:30;;;;;;;7.95;4.00;;;;;;;14.56;100.00;100752.59;6125780;23;20006;-80
2022/09/14 03:03:55;;;;;;;11.88;4.32;;;;;;;14.54;100.00;100750.06;6126018;23;20025;-78
2022/09/14 03:06:21;;;;;;;7.65;3.65;;;;;;;14.51;100.00;100752.13;6126635;23;20002;-79
2022/09/14 03:08:48;;;;;;;9.15;4.22;;;;;;;14.39;100.00;100730.50;6126229;23;20006;-80
2022/09/14 03:11:13;;;;;;;9.52;3.95;;;;;;;14.42;100.00;100739.81;6126325;23;20019;-78
2022/09/14 03:13:39;;;;;;;10.85;4.05;;;;;;;14.45;100.00;100752.59;6100267;23;20002;-79
2022/09/14 03:16:10;;;;;;;8.88;3.78;;;;;;;14.34;100.00;100722.25;6100172;23;20104;-78
2022/09/14 03:18:36;;;;;;;10.95;3.67;;;;;;;14.39;99.43;100733.13;6126273;23;20009;-79
2022/09/14 03:21:06;;;;;;;12.73;4.15;;;;;;;14.33;100.00;100743.97;6126231;23;20040;-80
2022/09/14 03:23:40;;;;;;;13.48;4.50;;;;;;;14.31;100.00;100740.69;6126049;23;20009;-79
2022/09/14 03:26:07;;;;;;;10.05;3.38;;;;;;;14.13;99.99;100727.38;6100032;23;20080;-80
2022/09/14 03:28:32;;;;;;;10.60;3.35;;;;;;;14.02;99.74;100717.84;6099785;23;20013;-78
2022/09/14 03:31:03;;;;;;;9.93;4.22;;;;;;;14.09;100.00;100727.78;6125955;23;20010;-79
2022/09/14 03:33:29;;;;;;;10.60;4.00;;;;;;;14.01;100.00;100721.41;6126203;23;20084;-77
2022/09/14 03:35:54;;;;;;;7.90;3.40;;;;;;;14.00;100.00;100711.97;6126061;23;20369;-79
2022/09/14 03:38:20;;;;;;;9.25;4.13;;;;;;;13.98;100.00;100713.88;6126433;23;20136;-79
2022/09/14 03:40:45;;;;;;;13.43;4.32;;;;;;;13.97;100.00;100714.81;6100281;23;20129;-79
2022/09/14 03:43:11;;;;;;;10.55;4.22;;;;;;;13.96;100.00;100712.31;6125969;23;20002;-79
2022/09/14 03:45:37;;;;;;;10.57;3.55;;;;;;;13.94;100.00;100709.03;6126108;23;20088;-79
2022/09/14 03:48:04;;;;;;;9.70;3.13;;;;;;;13.90;100.00;100703.25;6126338;23;20301;-79
2022/09/14 03:50:30;;;;;;;10.15;3.88;;;;;;;13.90;100.00;100692.06;6126122;23;20325;-79
2022/09/14 03:52:55;;;;;;;10.93;3.35;;;;;;;13.83;100.00;100675.31;6126089;23;20037;-79
2022/09/14 03:55:21;;;;;;;9.52;3.72;;;;;;;13.61;100.00;100635.47;6126024;23;20469;-78
2022/09/14 03:57:46;;;;;;;9.27;3.50;;;;;;;14.01;100.00;100692.84;6125757;23;20053;-78
2022/09/14 04:00:11;;;;;;;11.38;3.30;;;;;;;13.96;99.57;100697.59;6125737;23;20057;-79
2022/09/14 04:02:38;;;;;;;7.70;2.40;;;;;;;14.00;100.00;100698.97;6126266;23;20002;-79
2022/09/14 04:05:04;;;;;;;9.38;2.75;;;;;;;13.80;100.00;100658.22;6125975;23;20013;-79
2022/09/14 04:07:29;;;;;;;8.20;2.88;;;;;;;13.82;100.00;100661.50;6126074;23;20002;-79
2022/09/14 04:09:55;;;;;;;10.95;3.17;;;;;;;13.80;100.00;100657.38;6125957;23;20022;-79
2022/09/14 04:12:20;;;;;;;13.70;3.42;;;;;;;13.96;100.00;100682.00;6125960;23;20034;-79
2022/09/14 04:14:45;;;;;;;9.20;3.15;;;;;;;13.91;100.00;100686.72;6127330;23;19997;-78
2022/09/14 04:17:11;;;;;;;8.07;2.65;;;;;;;13.92;100.00;100677.16;6127673;23;20084;-77
2022/09/14 04:19:39;;;;;;;8.13;2.90;;;;;;;13.94;100.00;100689.06;6127610;23;20006;-80
2022/09/14 04:22:04;;;;;;;8.75;2.70;;;;;;;13.76;99.58;100660.22;6127942;23;19998;-78
2022/09/14 04:24:30;;;;;;;8.82;3.40;;;;;;;13.86;100.00;100675.06;6127204;23;20025;-78
2022/09/14 04:26:55;;;;;;;9.50;3.00;;;;;;;13.81;100.00;100657.25;6127649;23;20013;-79
2022/09/14 04:29:21;;;;;;;11.13;2.55;;;;;;;13.88;99.67;100666.22;6127372;23;20072;-78
2022/09/14 04:31:46;;;;;;;9.45;2.80;;;;;;;13.71;100.00;100641.59;6127816;23;20009;-78
2022/09/14 04:34:15;;;;;;;10.55;3.45;;;;;;;13.84;100.00;100664.78;6127489;23;20006;-79
2022/09/14 04:36:41;;;;;;;11.13;3.28;;;;;;;13.90;100.00;100666.09;6127657;23;20042;-79
2022/09/14 04:39:06;;;;;;;11.80;3.78;;;;;;;13.86;100.00;100668.09;6101292;23;20010;-78
2022/09/14 04:41:32;;;;;;;9.00;3.10;;;;;;;13.77;100.00;100655.88;6127698;23;20024;-77
2022/09/14 04:43:58;;;;;;;8.48;3.17;;;;;;;13.86;100.00;100667.25;6101356;23;20044;-79
2022/09/14 04:46:31;;;;;;;8.45;3.10;;;;;;;13.72;100.00;100637.22;6101206;23;20013;-80
2022/09/14 04:48:57;;;;;;;9.60;2.83;;;;;;;13.80;100.00;100647.00;6127324;23;20068;-79
2022/09/14 04:51:25;;;;;;;8.95;2.78;;;;;;;13.90;100.00;100655.72;6127352;23;20042;-79
2022/09/14 04:53:52;;;;;;;7.97;3.35;;;;;;;13.78;100.00;100634.97;6127134;23;20009;-76
2022/09/14 04:56:21;;;;;;;8.15;3.13;;;;;;;13.95;100.00;100650.97;6127275;23;20106;-81
2022/09/14 04:58:49;;;;;;;13.38;3.28;;;;;;;13.97;100.00;100639.53;6127211;23;20009;-79
2022/09/14 05:01:18;;;;;;;8.50;3.33;;;;;;;13.85;100.00;100617.13;6127218;23;20010;-77
2022/09/14 05:03:43;;;;;;;11.30;3.45;;;;;;;13.95;99.98;100637.97;6127191;23;20016;-78
2022/09/14 05:06:18;;;;;;;8.45;3.15;;;;;;;13.87;99.86;100609.25;6127181;23;20039;-78
2022/09/14 05:08:44;;;;;;;10.07;3.40;;;;;;;13.99;99.56;100635.03;6127003;23;20084;-79
2022/09/14 05:11:13;;;;;;;14.10;3.60;;;;;;;13.94;99.43;100628.53;6126797;23;20006;-80
2022/09/14 05:13:39;;;;;;;10.07;3.67;;;;;;;13.92;99.28;100623.47;6127015;23;20328;-79
2022/09/14 05:16:05;;;;;;;9.00;3.67;;;;;;;14.02;100.00;100644.34;6127183;23;20006;-79
2022/09/14 05:18:31;;;;;;;8.80;3.25;;;;;;;13.99;100.00;100632.44;6127136;23;20008;-79
2022/09/14 05:21:01;;;;;;;8.82;3.20;;;;;;;14.00;99.92;100641.88;6127048;23;20029;-76
2022/09/14 05:23:27;;;;;;;7.55;3.08;;;;;;;14.02;100.00;100639.16;6126660;23;20335;-78
2022/09/14 05:25:52;;;;;;;9.10;3.40;;;;;;;13.96;100.00;100635.28;6126668;23;20056;-79
2022/09/14 05:28:17;;;;;;;7.75;3.45;;;;;;;13.99;100.00;100642.81;6126450;23;20006;-80
2022/09/14 05:30:43;;;;;;;9.18;3.08;;;;;;;13.99;100.00;100645.41;6126856;23;20006;-81
2022/09/14 05:33:08;;;;;;;10.95;3.65;;;;;;;14.00;100.00;100657.44;6100485;23;20013;-78
2022/09/14 05:35:33;;;;;;;9.55;3.50;;;;;;;13.90;100.00;100627.97;6126678;23;20005;-78
2022/09/14 05:37:59;;;;;;;11.65;3.42;;;;;;;13.98;100.00;100655.94;6126939;23;20006;-76
2022/09/14 05:40:24;;;;;;;11.27;4.15;;;;;;;14.03;100.00;100657.19;6126848;23;20028;-78
2022/09/14 05:42:49;;;;;;;10.40;3.38;;;;;;;13.98;100.00;100654.16;6126956;23;20002;-75
2022/09/14 05:45:15;;;;;;;10.85;4.13;;;;;;;13.98;100.00;100655.94;6126339;23;20005;-74
2022/09/14 05:47:40;;;;;;;13.35;3.78;;;;;;;13.90;100.00;100645.31;6126788;23;20006;-74
2022/09/14 05:50:07;;;;;;;11.43;4.00;;;;;;;14.01;100.00;100659.09;6126854;23;20028;-75
2022/09/14 05:52:32;;;;;;;12.27;3.70;;;;;;;13.89;100.00;100644.50;6126742;23;20012;-78
2022/09/14 05:54:57;;;;;;;8.20;3.88;;;;;;;14.01;100.00;100666.88;6127056;23;20006;-78
2022/09/14 05:57:23;;;;;;;15.25;3.90;;;;;;;14.01;100.00;100659.09;6100397;23;20010;-77
2022/09/14 05:59:48;;;;;;;11.70;4.20;;;;;;;13.91;100.00;100642.59;6126668;23;20057;-78
2022/09/14 06:02:14;;;;;;;9.82;4.43;;;;;;;13.72;100.00;100616.47;6126455;23;20029;-74
2022/09/14 06:04:39;;;;;;;10.82;3.85;;;;;;;13.98;100.00;100661.13;6126453;23;20009;-78
2022/09/14 06:07:04;;;;;;;9.95;4.35;;;;;;;13.82;100.00;100632.94;6126656;23;20081;-78
2022/09/14 06:09:30;;;;;;;9.30;4.47;;;;;;;14.01;100.00;100663.47;6126619;23;20332;-78
2022/09/14 06:11:55;;;;;;;9.30;4.30;;;;;;;13.99;100.00;100660.16;6126525;23;20090;-80
2022/09/14 06:14:20;;;;;;;12.20;4.78;;;;;;;13.99;100.00;100662.75;6126545;23;20082;-75
2022/09/14 06:16:46;;;;;;;13.05;4.43;;;;;;;13.89;100.00;100641.09;6126081;23;20081;-78
2022/09/14 06:19:13;;;;;;;10.05;4.22;;;;;;;13.60;100.00;100591.50;6125253;23;20002;-74
2022/09/14 06:21:38;;;;;;;11.68;4.95;;;;;;;14.12;100.00;100678.19;6126628;23;20006;-76
2022/09/14 06:24:04;;;;;;;8.88;4.47;;;;;;;14.15;100.00;100693.50;6100666;23;20428;-76
2022/09/14 06:26:29;;;;;;;12.10;4.47;;;;;;;14.17;100.00;100682.06;6100511;23;20013;-80
2022/09/14 06:28:55;;;;;;;9.68;4.55;;;;;;;14.18;100.00;100670.72;6126359;23;20005;-76
2022/09/14 06:31:24;;;;;;;15.52;4.70;;;;;;;14.16;100.00;100667.44;6099226;23;20006;-78
2022/09/14 06:33:50;;;;;;;12.18;4.70;;;;;;;14.10;100.00;100647.16;6126511;23;20013;-80
2022/09/14 06:36:19;;;;;;;12.05;4.75;;;;;;;14.25;100.00;100658.06;6126137;23;20002;-78
2022/09/14 06:38:46;;;;;;;8.73;4.90;;;;;;;14.26;100.00;100663.16;6126516;23;20085;-77
2022/09/14 06:41:13;;;;;;;12.77;4.93;;;;;;;14.12;100.00;100632.25;6126525;23;20129;-75
2022/09/14 06:43:40;;;;;;;9.93;5.00;;;;;;;14.28;100.00;100655.22;6126432;23;20013;-76
2022/09/14 06:46:17;;;;;;;10.32;5.25;;;;;;;14.24;100.00;100648.63;6125644;23;20006;-79
2022/09/14 06:48:46;;;;;;;11.32;5.57;;;;;;;14.30;100.00;100650.72;6126460;23;20335;-78
2022/09/14 06:51:22;;;;;;;9.60;4.75;;;;;;;14.25;100.00;100635.50;6126418;23;20056;-77
2022/09/14 06:53:48;;;;;;;9.90;5.00;;;;;;;14.38;100.00;100644.91;6077460;23;20010;-78
2022/09/14 06:56:14;;;;;;;13.75;5.20;;;;;;;14.12;100.00;100598.50;6126223;23;20495;-80
2022/09/14 06:58:40;;;;;;;16.92;5.43;;;;;;;14.40;100.00;100640.41;6126353;23;20044;-78
2022/09/14 07:01:16;;;;;;;11.82;5.70;;;;;;;14.43;100.00;100638.38;6126039;23;20006;-80
2022/09/14 07:03:42;;;;;;;10.95;5.22;;;;;;;14.35;100.00;100626.03;6126131;23;20009;-81
2022/09/14 07:06:20;;;;;;;10.30;5.97;;;;;;;14.50;100.00;100646.53;6126403;23;20006;-79
2022/09/14 07:08:47;;;;;;;10.43;5.82;;;;;;;14.41;100.00;100634.25;6101076;23;20002;-80
2022/09/14 07:11:15;;;;;;;11.45;5.80;;;;;;;14.46;100.00;100635.56;6099660;23;20006;-78
2022/09/14 07:13:44;;;;;;;10.55;5.15;;;;;;;14.48;100.00;100636.28;6126359;23;20002;-81
2022/09/14 07:16:10;;;;;;;10.05;5.47;;;;;;;14.45;100.00;100633.09;6126540;23;20020;-79
2022/09/14 07:18:35;;;;;;;10.23;5.38;;;;;;;14.39;100.00;100636.16;6100058;23;20005;-81
2022/09/14 07:21:09;;;;;;;10.90;5.60;;;;;;;14.39;100.00;100636.16;6126253;23;20036;-79
2022/09/14 07:23:37;;;;;;;10.30;5.00;;;;;;;14.33;100.00;100637.47;6126316;23;20032;-79
2022/09/14 07:26:06;;;;;;;13.65;6.00;;;;;;;14.21;100.00;100628.91;6125754;23;20060;-80
2022/09/14 07:28:32;;;;;;;11.43;5.95;;;;;;;14.17;100.00;100634.50;6126082;23;20068;-79
2022/09/14 07:30:58;;;;;;;14.48;6.07;;;;;;;14.13;100.00;100627.88;6126181;23;20129;-79
2022/09/14 07:33:24;;;;;;;13.30;5.70;;;;;;;14.07;100.00;100635.25;6125965;23;20084;-78
2022/09/14 07:35:49;;;;;;;11.77;5.40;;;;;;;13.93;100.00;100619.13;6126212;23;20010;-81
2022/09/14 07:38:14;;;;;;;9.25;5.43;;;;;;;13.96;100.00;100632.69;6126190;23;20006;-79
2022/09/14 07:40:40;;;;;;;9.88;5.32;;;;;;;13.72;100.00;100601.72;6099623;23;20447;-79
2022/09/14 07:43:05;;;;;;;12.93;6.18;;;;;;;13.92;100.00;100636.47;6126007;23;20010;-79
2022/09/14 07:45:31;;;;;;;12.75;5.40;;;;;;;13.84;100.00;100620.66;6126262;23;20010;-75
2022/09/14 07:47:56;;;;;;;11.20;6.32;;;;;;;13.84;100.00;100610.28;6126966;23;20006;-76
2022/09/14 07:50:21;;;;;;;9.98;5.05;;;;;;;14.02;100.00;100632.19;6127906;23;20005;-78
2022/09/14 07:52:50;;;;;;;11.52;5.75;;;;;;;13.83;100.00;100589.66;6102360;23;20301;-79
2022/09/14 07:55:17;;;;;;;13.95;5.45;;;;;;;13.99;100.00;100614.25;6101248;23;20014;-78
2022/09/14 07:57:42;;;;;;;12.63;5.65;;;;;;;13.97;100.00;100605.78;6127953;23;20015;-78
2022/09/14 08:00:09;;;;;;;11.25;5.78;;;;;;;14.17;100.00;100630.13;6127926;23;20025;-77
2022/09/14 08:02:35;;;;;;;9.63;5.60;;;;;;;13.94;100.00;100580.03;6127740;23;20073;-80
2022/09/14 08:05:00;;;;;;;13.35;5.07;;;;;;;14.29;100.00;100623.09;6126563;23;20100;-77
2022/09/14 08:07:26;;;;;;;13.00;5.40;;;;;;;14.16;100.00;100599.06;6101989;23;20002;-78
2022/09/14 08:09:51;;;;;;;11.57;5.72;;;;;;;14.14;100.00;100585.38;6127447;23;20002;-79
2022/09/14 08:12:16;;;;;;;10.52;5.28;;;;;;;14.35;100.00;100627.78;6127390;23;20088;-79
2022/09/14 08:14:42;;;;;;;10.13;4.97;;;;;;;14.10;100.00;100589.19;6101204;23;20002;-80
2022/09/14 08:17:09;;;;;;;12.50;6.22;;;;;;;14.17;100.00;100595.53;6127671;23;20002;-79
2022/09/14 08:19:35;;;;;;;12.20;5.68;;;;;;;14.07;100.00;100569.50;6101085;23;20487;-78
2022/09/14 08:22:00;;;;;;;10.77;5.30;;;;;;;14.29;100.00;100594.53;6101765;23;20376;-77
2022/09/14 08:24:25;;;;;;;11.70;5.40;;;;;;;14.35;100.00;100602.66;6100688;23;20018;-77
2022/09/14 08:26:51;;;;;;;11.15;5.80;;;;;;;14.51;100.00;100627.38;6101519;23;20325;-78
2022/09/14 08:29:18;;;;;;;10.38;5.43;;;;;;;14.55;100.00;100626.16;6101510;23;20002;-79
2022/09/14 08:31:44;;;;;;;11.77;5.88;;;;;;;14.44;100.00;100605.41;6102037;23;20009;-80
2022/09/14 08:34:10;;;;;;;9.63;5.47;;;;;;;14.35;99.91;100586.22;6127429;23;20005;-81
2022/09/14 08:36:38;;;;;;;9.00;5.38;;;;;;;14.43;100.00;100595.97;6127643;23;20053;-79
2022/09/14 08:39:07;;;;;;;12.80;6.03;;;;;;;14.68;100.00;100633.78;6127369;23;20006;-80
2022/09/14 08:41:39;;;;;;;15.82;6.03;;;;;;;14.70;99.30;100630.09;6127306;23;20028;-74
2022/09/14 08:44:12;;;;;;;13.20;6.13;;;;;;;14.50;99.64;100605.78;6127532;23;20129;-79
2022/09/14 08:46:43;;;;;;;9.52;6.20;;;;;;;14.54;100.00;100606.34;6127808;23;20013;-79
2022/09/14 08:49:24;;;;;;;11.63;6.30;;;;;;;14.64;100.00;100618.44;6127332;23;20012;-81
2022/09/14 08:51:50;;;;;;;12.10;5.70;;;;;;;14.76;99.34;100634.00;6100985;23;20006;-82
2022/09/14 08:54:16;;;;;;;10.02;6.03;;;;;;;14.75;100.00;100617.56;6127313;23;20061;-82
2022/09/14 08:56:46;;;;;;;12.60;6.50;;;;;;;14.77;99.33;100620.03;6127620;23;20447;-82
2022/09/14 08:59:27;;;;;;;11.93;6.05;;;;;;;14.88;99.60;100622.56;6126897;23;20313;-80
2022/09/14 09:02:17;;;;;;;10.65;5.45;;;;;;;14.88;99.44;100627.75;6127377;23;20013;-80
2022/09/14 09:04:54;;;;;;;18.13;6.57;;;;;;;14.78;100.00;100613.88;6126943;23;20052;-79
2022/09/14 09:07:32;;;;;;;11.95;6.03;;;;;;;14.96;99.28;100638.34;6127506;23;20013;-77
2022/09/14 09:09:58;;;;;;;11.75;5.55;;;;;;;14.70;100.00;100593.72;6100558;23;20037;-78
2022/09/14 09:12:37;;;;;;;13.68;6.57;;;;;;;14.90;99.85;100637.06;6127417;23;20069;-78
2022/09/14 09:15:25;;;;;;;11.02;5.55;;;;;;;14.92;99.04;100645.56;6127263;23;19997;-79
2022/09/14 09:18:23;;;;;;;13.48;6.10;;;;;;;14.37;98.92;100539.34;6126033;23;20016;-79
2022/09/14 09:20:51;;;;;;;11.35;6.20;;;;;;;14.99;100.00;100629.44;6126986;23;20376;-78
2022/09/14 09:23:22;;;;;;;12.48;6.30;;;;;;;14.91;100.00;100619.69;6126550;23;20088;-79
2022/09/14 09:25:54;;;;;;;10.85;6.63;;;;;;;14.86;99.39;100608.88;6125586;23;20049;-79
2022/09/14 09:28:21;;;;;;;10.93;6.65;;;;;;;15.02;99.29;100630.00;6124639;23;20006;-75
2022/09/14 09:30:47;;;;;;;13.07;6.47;;;;;;;14.96;99.68;100635.75;6125331;23;20400;-74
2022/09/14 09:33:20;;;;;;;12.45;6.90;;;;;;;14.51;99.75;100549.44;6126010;23;20033;-75
2022/09/14 09:35:46;;;;;;;11.10;6.75;;;;;;;14.98;99.95;100622.59;6125909;23;20010;-75
2022/09/14 09:38:16;;;;;;;14.18;7.10;;;;;;;15.02;100.00;100630.00;6126816;23;20050;-78
2022/09/14 09:40:49;;;;;;;12.73;6.18;;;;;;;14.94;100.00;100622.03;6126875;23;20086;-77
2022/09/14 09:43:17;;;;;;;10.88;6.40;;;;;;;15.05;99.40;100637.56;6125276;23;20006;-76
2022/09/14 09:46:05;;;;;;;10.50;5.82;;;;;;;14.99;100.00;100625.06;6125313;23;20010;-75
2022/09/14 09:48:39;;;;;;;12.05;6.68;;;;;;;14.72;100.00;100594.41;6099232;23;20069;-77
2022/09/14 09:51:27;;;;;;;13.93;6.40;;;;;;;14.98;100.00;100630.41;6125356;23;20085;-75
2022/09/14 09:54:24;;;;;;;11.18;6.75;;;;;;;14.97;100.00;100626.16;6125470;23;20500;-76
2022/09/14 09:56:58;;;;;;;16.65;7.15;;;;;;;14.77;100.00;100589.66;6126576;23;20016;-77
2022/09/14 09:59:36;;;;;;;10.98;6.78;;;;;;;15.06;100.00;100622.78;6100616;23;20089;-74
2022/09/14 10:02:21;;;;;;;12.60;6.75;;;;;;;15.13;99.59;100618.69;6126584;23;20332;-76
2022/09/14 10:04:57;;;;;;;16.42;6.85;;;;;;;15.14;100.00;100620.31;6125132;23;20016;-75
2022/09/14 10:07:23;;;;;;;11.57;6.50;;;;;;;15.06;98.32;100602.78;6124633;23;20033;-76
2022/09/14 10:10:10;;;;;;;11.95;6.95;;;;;;;15.28;100.00;100613.97;6125304;23;20064;-79
2022/09/14 10:12:41;;;;;;;12.32;6.47;;;;;;;15.35;98.52;100621.09;6125700;23;20082;-77
2022/09/14 10:15:26;;;;;;;15.95;6.68;;;;;;;15.48;98.12;100615.66;6126947;23;19998;-80
2022/09/14 10:18:16;;;;;;;12.55;7.00;;;;;;;15.70;97.99;100610.25;6100185;23;20006;-78
2022/09/14 10:20:44;;;;;;;13.82;6.75;;;;;;;15.77;98.39;100618.34;6126878;23;20073;-79
2022/09/14 10:23:18;;;;;;;12.80;6.43;;;;;;;15.91;97.29;100609.31;6099901;23;20033;-79
2022/09/14 10:25:50;;;;;;;12.25;6.63;;;;;;;15.99;96.26;100610.28;6100246;23;20392;-79
2022/09/14 10:28:36;;;;;;;11.77;6.70;;;;;;;16.06;95.48;100613.16;6126380;23;20081;-79
2022/09/14 10:31:14;;;;;;;12.80;7.20;;;;;;;16.04;95.52;100618.50;6126157;23;20006;-79
2022/09/14 10:33:41;;;;;;;11.43;6.85;;;;;;;16.01;94.60;100618.78;6126486;23;20077;-79
2022/09/14 10:36:46;;;;;;;12.18;6.88;;;;;;;16.09;94.46;100610.28;6126234;23;20017;-79
2022/09/14 10:39:21;;;;;;;11.15;5.90;;;;;;;16.18;93.16;100616.44;6100426;23;20080;-79
2022/09/14 10:42:05;;;;;;;12.98;5.97;;;;;;;16.06;91.50;100597.53;6100414;23;20013;-79
2022/09/14 10:44:47;;;;;;;10.18;5.68;;;;;;;16.19;92.21;100618.09;6126393;23;20025;-79
2022/09/14 10:47:31;;;;;;;12.30;6.63;;;;;;;16.23;91.08;100611.66;6126497;23;20060;-81
2022/09/14 10:50:05;;;;;;;9.50;5.97;;;;;;;16.19;92.06;100608.50;6126047;23;20009;-79
2022/09/14 10:52:45;;;;;;;12.00;5.95;;;;;;;16.09;94.17;100591.22;6126392;23;20006;-80
2022/09/14 10:55:41;;;;;;;9.25;5.38;;;;;;;16.26;92.27;100611.38;6126631;23;20049;-77
2022/09/14 10:58:23;;;;;;;13.40;5.43;;;;;;;16.15;89.70;100609.75;6125986;23;20077;-76
2022/09/14 11:01:13;;;;;;;11.50;6.00;;;;;;;16.17;92.01;100609.59;6126332;23;20324;-77
2022/09/14 11:04:00;;;;;;;10.52;6.10;;;;;;;16.02;92.80;100609.16;6126362;23;20057;-79
2022/09/14 11:06:56;;;;;;;12.25;6.28;;;;;;;15.77;91.55;100587.94;6126162;23;20006;-81
2022/09/14 11:09:43;;;;;;;12.82;6.60;;;;;;;15.89;93.32;100608.63;6126251;23;20077;-80
2022/09/14 11:12:20;;;;;;;10.25;7.00;;;;;;;15.87;94.42;100611.38;6126365;23;20010;-79
2022/09/14 11:15:14;;;;;;;11.30;6.63;;;;;;;15.83;92.58;100606.56;6126412;23;20443;-79
2022/09/14 11:18:07;;;;;;;13.13;5.70;;;;;;;15.86;92.82;100608.91;6126284;23;20085;-76
2022/09/14 11:20:51;;;;;;;9.77;5.70;;;;;;;15.83;91.37;100609.16;6126076;23;20420;-78
2022/09/14 11:23:45;;;;;;;10.45;6.13;;;;;;;15.90;93.30;100613.69;6127426;23;20002;-79
2022/09/14 11:26:18;;;;;;;9.77;6.32;;;;;;;15.85;93.34;100612.47;6127769;23;20388;-77
2022/09/14 11:28:49;;;;;;;12.80;6.53;;;;;;;15.82;93.03;100612.72;6128484;23;20010;-79
2022/09/14 11:31:44;;;;;;;12.88;6.40;;;;;;;15.93;93.91;100612.63;6102205;23;20006;-79
2022/09/14 11:34:17;;;;;;;10.38;5.95;;;;;;;15.96;92.03;100610.56;5982358;24;20008;-77